Takamine — 7JKK — position and weather

sailwx.info

Track history (hours):
 
Tides and Currents Weather Stations Pressure Air Temp Water Temp Dewpoint Dewpoint Depression Visibility Wind Speed Wind Dir Waves Ship Positions

Takamine

Last reported at 2014-Oct-27 02:33 UTC. Time now 2014-Nov-01 07:43 UTC.
Position N 35°03' E 139°42'.

Length 333 m; draft 10.9 m.

Type: Tanker. MMSI: 432832000.

Date/timePositionNaut miles runAvg speedWind from/ knotsBaromVisibWave heightAir tempDewpointWater temp
2014-Oct-27 02:33N 35°03' E 139°42'1111.0
2014-Oct-27 01:33N 35°13' E 139°46'1211.8
2014-Oct-27 00:33N 35°25' E 139°43'4 4.2
2014-Oct-26 23:32N 35°28' E 139°46'0 0.1
2014-Oct-26 22:32N 35°28' E 139°46'0 0.0
2014-Oct-26 21:29N 35°28' E 139°46'0 0.1
2014-Oct-26 20:32N 35°28' E 139°46'0 0.0
2014-Oct-26 19:32N 35°28' E 139°46'0 0.0
2014-Oct-26 18:29N 35°28' E 139°46'0 0.0
2014-Oct-26 17:32N 35°28' E 139°46'0 0.0
2014-Oct-26 16:32N 35°28' E 139°46'0 0.0
2014-Oct-26 15:32N 35°28' E 139°46'0 0.2
2014-Oct-26 14:32N 35°28' E 139°46'0 0.1
2014-Oct-26 13:32N 35°28' E 139°46'0 0.0
2014-Oct-26 12:32N 35°28' E 139°46'0 0.1
2014-Oct-26 11:32N 35°28' E 139°46'0 0.2
2014-Oct-26 10:32N 35°28' E 139°46'0 0.1
2014-Oct-26 09:32N 35°28' E 139°46'0 0.1
2014-Oct-26 08:29N 35°28' E 139°46'0 0.0
2014-Oct-26 07:32N 35°28' E 139°46'0 0.1
2014-Oct-26 06:32N 35°28' E 139°46'0 0.2
2014-Oct-26 05:32N 35°28' E 139°46'0 0.2
2014-Oct-26 04:32N 35°28' E 139°46'0 0.1
2014-Oct-26 03:32N 35°28' E 139°46'0 0.0
2014-Oct-26 02:32N 35°28' E 139°46'0 0.0
2014-Oct-26 01:32N 35°28' E 139°46'0 0.1
2014-Oct-26 00:33N 35°28' E 139°46'0 0.1
2014-Oct-25 23:30N 35°28' E 139°46'0 0.2
2014-Oct-25 22:30N 35°28' E 139°46'0 0.1
2014-Oct-25 21:33N 35°28' E 139°46'0 0.0
2014-Oct-25 20:33N 35°28' E 139°46'0 0.0
2014-Oct-25 19:33N 35°28' E 139°46'0 0.0
2014-Oct-25 18:33N 35°28' E 139°46'0 0.0
2014-Oct-25 17:33N 35°28' E 139°46'0 0.1
2014-Oct-25 16:33N 35°28' E 139°46'0 0.2
2014-Oct-25 15:33N 35°28' E 139°46'0 0.1
2014-Oct-25 14:30N 35°28' E 139°46'0 0.1
2014-Oct-25 13:33N 35°28' E 139°46'0 0.0
2014-Oct-25 12:33N 35°28' E 139°46'0 0.1
2014-Oct-25 11:33N 35°28' E 139°46'0 0.2
2014-Oct-25 10:33N 35°28' E 139°46'0 0.1
2014-Oct-25 09:30N 35°28' E 139°46'0 0.0
2014-Oct-25 07:30N 35°28' E 139°46'0 0.0
2014-Oct-25 06:30N 35°28' E 139°46'0 0.0
2014-Oct-25 05:24N 35°28' E 139°46'0 0.1
2014-Oct-25 04:30N 35°28' E 139°46'0 0.2
2014-Oct-25 03:30N 35°28' E 139°46'0 0.2
2014-Oct-25 02:33N 35°28' E 139°46'4 4.0
2014-Oct-25 01:33N 35°24' E 139°46'9 9.5
2014-Oct-25 00:34N 35°14' E 139°47'8 8.3
2014-Oct-24 23:34N 35°06' E 139°45'7 6.3
2014-Oct-24 22:28N 34°60' E 139°42'  
Track history (hours):
 
Tides and Currents Weather Stations Pressure Air Temp Water Temp Dewpoint Dewpoint Depression Visibility Wind Speed Wind Dir Waves Ship Positions

Takamine

Last reported at 2014-Oct-27 02:33 UTC. Time now 2014-Nov-01 07:43 UTC.
Position N 35°03' E 139°42'.

Length 333 m; draft 10.9 m.

Type: Tanker. MMSI: 432832000.

Date/timePositionNaut miles runAvg speedWind from/ knotsBaromVisibWave heightAir tempDewpointWater temp
2014-Oct-27 02:33N 35°03' E 139°42'1111.0
2014-Oct-27 01:33N 35°13' E 139°46'1211.8
2014-Oct-27 00:33N 35°25' E 139°43'4 4.2
2014-Oct-26 23:32N 35°28' E 139°46'0 0.1
2014-Oct-26 22:32N 35°28' E 139°46'0 0.0
2014-Oct-26 21:29N 35°28' E 139°46'0 0.1
2014-Oct-26 20:32N 35°28' E 139°46'0 0.0
2014-Oct-26 19:32N 35°28' E 139°46'0 0.0
2014-Oct-26 18:29N 35°28' E 139°46'0 0.0
2014-Oct-26 17:32N 35°28' E 139°46'0 0.0
2014-Oct-26 16:32N 35°28' E 139°46'0 0.0
2014-Oct-26 15:32N 35°28' E 139°46'0 0.2
2014-Oct-26 14:32N 35°28' E 139°46'0 0.1
2014-Oct-26 13:32N 35°28' E 139°46'0 0.0
2014-Oct-26 12:32N 35°28' E 139°46'0 0.1
2014-Oct-26 11:32N 35°28' E 139°46'0 0.2
2014-Oct-26 10:32N 35°28' E 139°46'0 0.1
2014-Oct-26 09:32N 35°28' E 139°46'0 0.1
2014-Oct-26 08:29N 35°28' E 139°46'0 0.0
2014-Oct-26 07:32N 35°28' E 139°46'0 0.1
2014-Oct-26 06:32N 35°28' E 139°46'0 0.2
2014-Oct-26 05:32N 35°28' E 139°46'0 0.2
2014-Oct-26 04:32N 35°28' E 139°46'0 0.1
2014-Oct-26 03:32N 35°28' E 139°46'0 0.0
2014-Oct-26 02:32N 35°28' E 139°46'0 0.0
2014-Oct-26 01:32N 35°28' E 139°46'0 0.1
2014-Oct-26 00:33N 35°28' E 139°46'0 0.1
2014-Oct-25 23:30N 35°28' E 139°46'0 0.2
2014-Oct-25 22:30N 35°28' E 139°46'0 0.1
2014-Oct-25 21:33N 35°28' E 139°46'0 0.0
2014-Oct-25 20:33N 35°28' E 139°46'0 0.0
2014-Oct-25 19:33N 35°28' E 139°46'0 0.0
2014-Oct-25 18:33N 35°28' E 139°46'0 0.0
2014-Oct-25 17:33N 35°28' E 139°46'0 0.1
2014-Oct-25 16:33N 35°28' E 139°46'0 0.2
2014-Oct-25 15:33N 35°28' E 139°46'0 0.1
2014-Oct-25 14:30N 35°28' E 139°46'0 0.1
2014-Oct-25 13:33N 35°28' E 139°46'0 0.0
2014-Oct-25 12:33N 35°28' E 139°46'0 0.1
2014-Oct-25 11:33N 35°28' E 139°46'0 0.2
2014-Oct-25 10:33N 35°28' E 139°46'0 0.1
2014-Oct-25 09:30N 35°28' E 139°46'0 0.0
2014-Oct-25 07:30N 35°28' E 139°46'0 0.0
2014-Oct-25 06:30N 35°28' E 139°46'0 0.0
2014-Oct-25 05:24N 35°28' E 139°46'0 0.1
2014-Oct-25 04:30N 35°28' E 139°46'0 0.2
2014-Oct-25 03:30N 35°28' E 139°46'0 0.2
2014-Oct-25 02:33N 35°28' E 139°46'4 4.0
2014-Oct-25 01:33N 35°24' E 139°46'9 9.5
2014-Oct-25 00:34N 35°14' E 139°47'8 8.3
2014-Oct-24 23:34N 35°06' E 139°45'7 6.3
2014-Oct-24 22:28N 34°60' E 139°42'  

Dump ship's entire track history